EGMC/SEN METAR and TAF weather

Enter ICAO airport designator
Station Type Date Time Source
EGMC METAR 2019/02/21 16:50 UTC NOAA

EGMC 211650Z 23008KT CAVOK 13/08 Q1027


Station Type Date Time Source
EGMC Decoded METAR 2019/02/21 16:50 UTC NOAA

Southend-On-Sea , United Kingdom (EGMC) 51-34N 000-42E
Feb 21, 2019 - 11:50 AM EST / 2019.02.21 1650 UTC
Wind: from the SW (230 degrees) at 9 MPH (8 KT):0
Visibility: greater than 7 mile(s):0
Temperature: 55 F (13 C)
Dew Point: 46 F (8 C)
Relative Humidity: 71%
Pressure (altimeter): 30.33 in. Hg (1027 hPa)
ob: EGMC 211650Z 23008KT CAVOK 13/08 Q1027
cycle: 17

Station Type Date Time Source
EGMC TAF 2016/04/18 18:00 UTC NOAA

TAF EGMC 181658Z 1818/1903 28008KT 9999 BKN045


Example: see airport list